EGPA - Kirkwall Airport
Distance from station: E 5mi, 14km
Updated: 07/22/2018 10:50pm
Mostly Cloudy
Mostly Cloudy
 Wind from SE
Wind: SE 6 mph , 9 km/h
Temperature: 57°F , 14°C
Dew Point: 57°F , 14°C
Humidity: 100%
Barometer: 29.8 inHg , 1009 hPa
Clouds: Mostly Cloudy
Visibility: 6 miles , 10 km
Cloud details: Few Clouds 100 ft
Mostly Cloudy 500 ft
Mostly Cloudy 2800 ft
2018/07/23 05:50 EGPA 230550Z 13005KT 9999 FEW001 BKN005 BKN028 14/14 Q1009